Latest Observation

23 Stations

10 Minute Data | America/Los_Angeles
as of 1/30/23 9:15 AM PST
Station Date Time Temp (°F) Dew Pt (°F) RH (%) Wind Spd (mph) Wind Dir (°) Wind Gust (mph) Wind Gst Dir (°) Daily Max Temp (°F) Daily Min Temp (°F) Daily Max Wind (mph) Max Wind Dir (°)
Thomas Mountain 1/30/23 0910 30.6   3.1 30.6   0.9 100   8 6.2 E | 79 10.8 ENE | 77 30.9 28.4 15.0 WSW | 243
Red Mountain 1/30/23 0910 32.8   1.7 32.8   1.7 100   0 13.9 SW | 225 17.8 SW | 217 33.8 31.0 22.4 NNW | 327
Coyote Canyon 1/30/23 0910 35.6   2.9 33.6   1.3 92   6 1.8 N | 2 3.1 N | 3 36.7 33.2 12.2 ENE | 61
Pinyon 1/30/23 0910 34.4   4.6 30.8   0.2 87   15 3.0 NE | 39 6.9 NE | 48 34.7 31.6 19.4 SW | 231
Aguanga Barbara Trail 1/30/23 0910 41.0   0.6 35.5   1.6 81   7 5.7 E | 79 10.9 NE | 46 41.4 33.7 15.0 NE | 42
SCE Idyllwild Ridge 1/30/23 0910 30.5   0.9 30.5   2.4 100   12 0.0 N | 0 0.0 E | 88 31.0 26.1 0.0 E | 98
SCE Idyllwild Hwy 1/30/23 0910 43.3   2.7 40.2   0.4 89   8 0.7 NW | 305 1.5 NW | 304 43.7 37.8 7.1 SSW | 213
SCE Apple Canyon 1/30/23 0910 32.4   2.2 28.9   1.8 87   1 5.7 NE | 46 11.8 NE | 43 33.5 27.5 15.2 NE | 49
SCE Keen Ridge 1/30/23 0910 30.1   2.5 30.1   2.4 100   0 7.2 SE | 141 10.3 SE | 137 30.6 27.4 13.8 S | 169
SCE Aguanga 1/30/23 0910 45.1   0.8 38.6   1.0 78   1 3.2 E | 101 8.2 E | 86 45.8 37.4 14.0 ESE | 107
SCE Butterfield Valley 1/30/23 0910 44.7   3.6 42.7   0.0 93   12 0.4 N | 10 2.2 N | 10 45.2 40.5 7.5 ESE | 110
SCE Anza Rd 1/30/23 0910 45.2   4.7 43.4   0.2 93   16 1.6 N | 7 2.8 NNE | 18 45.6 41.9 10.0 E | 99
SCE Wilson Valley Rd 1/30/23 0910 43.9   1.0 38.4   1.5 81   2 2.9 SE | 130 7.7 ESE | 105 44.6 36.8 11.4 ESE | 112
SCE Weber Valley 1/30/23 0910 41.5   0.9 38.4   0.1 89   3 0.0 N | 0 0.2 SE | 134 41.9 36.0 6.4 NE | 49
SCE Red Mountain Rd 1/30/23 0910 40.3   0.5 35.2   3.1 82   12 6.5 SE | 128 9.4 SE | 125 40.6 34.9 13.2 WSW | 246
SCE Brown Canyon 1/30/23 0910 43.3   3.5 38.8   1.1 84   7 1.8 SE | 135 3.2 SE | 136 45.3 38.7 8.2 E | 83
SCE Cedar Ave 1/30/23 0910 44.5   2.3 40.6   1.2 86   3 1.4 SW | 236 2.6 WSW | 257 45.1 40.2 6.7 NNW | 346
SCE Anderson Dr 1/30/23 0910 43.9   3.0 39.9   1.8 86   4 1.2 NNE | 14 3.1 NNE | 28 44.5 40.8 5.8 NE | 36
SCE Pachea Trail 1/30/23 0910 43.2   2.6 40.6   0.1 90   9 1.7 NE | 56 3.9 NNE | 21 44.4 40.7 8.6 S | 169
SCE Painted Canyon Rd 1/30/23 0910 50.4   1.4 38.0   0.3 62   4 0.3 NNW | 344 1.3 N | 3 52.2 46.3 10.0 WSW | 252
Oak Grove 1/30/23 0910 41.6   1.5 38.3   0.9 88   2 9.2 ESE | 115 11.5 ESE | 122 42.1 35.5 14.8 NE | 38
Chihuahua Valley 1/30/23 0910 35.4   0.0 34.5   0.8 97   3 2.4 SSE | 159 5.0 S | 186 35.8 31.9 19.3 SSW | 204
Sunshine Summit 12/14/22 1230 50.6   6.3 25.7   4.3 38   19 4.5 SSE | 149 8.6 SSE | 152 51.0 27.5 13.6 SSE | 166
Max     50.4 43.4 100 13.9 - 17.8 - 52.2 46.3 22.4 -
Avg     39.7 36.4 88 3.5 - 6.1 - - - - -
Min     30.1 28.9 62 0.0 - 0.0 - 30.6 26.1 0.0 -